North Miami, FL (33161)

12:05 PM EDT on August 31, 2016 (GMT -0400)
Miami Shores | | Change Station

Elev 13 ft 25.87 °N, 80.17 °W | Updated 4 minutes ago

Mostly Cloudy
Mostly Cloudy
84.7 °F
Feels Like 98 °F
N
1.0
Wind Variable Wind from NW
Gusts 2.4 mph

Today
High -- | Low -- °F
--% Chance of Precip.
Yesterday
High -- | Low -- °F
Precip. -- in
Pressure 29.98 in
Visibility 10.0 miles
Clouds Scattered Clouds 2300 ft
Mostly Cloudy 2800 ft
Heat Index 98 °F
Dew Point 80 °F
Humidity 85%
Rainfall 0.04 in
Snow Depth Not available.
7:00 AM 7:40 PM
Waning Crescent, 1% visible
METAR KOPF 311553Z 16012KT 10SM SCT023 BKN028 29/24 A2997 RMK AO2 SLP150 T02940244
Pressure 29.98 in
Visibility 10.0 miles
Clouds Scattered Clouds 2300 ft
Mostly Cloudy 2800 ft
Heat Index 98 °F
Dew Point 80 °F
Humidity 85%
Rainfall 0.04 in
Snow Depth Not available.
7:00 AM 7:40 PM
Waning Crescent, 1% visible
METAR KOPF 311553Z 16012KT 10SM SCT023 BKN028 29/24 A2997 RMK AO2 SLP150 T02940244

10-Day Weather Forecast

Almanac

Astronomy

Aug. 31, 2016 Rise Set
Actual Time
Civil Twilight
Nautical Twilight
Astronomical Twilight
Moon
Length of Visible Light
Length of Day
Tomorrow will be .
, % of the Moon is Illuminated

Today's Extremes

State Highs State Lows

Community

WunderPhotos

Upload Photos

1,936,102 photos uploaded!

WunderBlog® & News

Nearby

Air Quality

  Air Quality AQ Index Pollutant
Not available.

Snow Depth

Station Depth Elevation

Earthquake Activity

City Distance Mag. Time & Date
Minimum magnitude displayed is 2.5.

Coastal Water Temperatures

Place Temperature

Stations

Nearby Weather Stations

Station Location Temp. Windchill Dew Point Humidity Wind Precip. Elev Updated Type
                   

Watches & Warnings

There are currently no watches in effect.